createdAt,value
2022-08-21T00:00:49.098Z,-25.6
2022-08-21T00:02:50.592Z,-25.6
2022-08-21T00:04:55.857Z,-25.5
2022-08-21T00:06:53.845Z,-25.8
2022-08-21T00:08:55.499Z,-25.5
2022-08-21T00:10:56.915Z,-25.4
2022-08-21T00:14:59.722Z,-25.7
2022-08-21T00:19:02.120Z,-25.8
2022-08-21T00:21:03.222Z,-25.5
2022-08-21T00:23:04.918Z,-25.7
2022-08-21T00:25:05.896Z,-25.7
2022-08-21T00:27:06.877Z,-25.5
2022-08-21T00:29:08.645Z,-25.4
2022-08-21T00:31:09.669Z,-25.8
2022-08-21T00:35:12.541Z,-25.4
2022-08-21T00:37:13.610Z,-25.8
2022-08-21T00:37:57.389Z,-25.6
2022-08-21T00:41:59.749Z,-25.7
2022-08-21T00:44:01.447Z,-25.6
2022-08-21T00:46:02.904Z,-25.6
2022-08-21T00:48:04.226Z,-25.5
2022-08-21T00:52:07.139Z,-25.5
2022-08-21T00:54:09.931Z,-25.9
2022-08-21T00:56:09.610Z,-25.6
2022-08-21T00:58:10.938Z,-25.5
2022-08-21T01:00:12.137Z,-25.4
2022-08-21T01:02:14.009Z,-25.5
2022-08-21T01:04:15.717Z,-25.7
2022-08-21T01:06:17.503Z,-25.8
2022-08-21T01:08:18.756Z,-25.2
2022-08-21T01:12:21.265Z,-25.5
2022-08-21T01:14:22.263Z,-25.5
2022-08-21T01:16:23.546Z,-25.4
2022-08-21T01:18:25.262Z,-25.5
2022-08-21T01:20:32.587Z,-25.5
2022-08-21T01:22:28.314Z,-25.4
2022-08-21T01:24:29.848Z,-25.5
2022-08-21T01:26:34.293Z,-25.5
2022-08-21T01:28:32.923Z,-25.7
2022-08-21T01:30:33.959Z,-25.3
2022-08-21T01:34:35.939Z,-25.5
2022-08-21T01:36:37.424Z,-25.6
2022-08-21T01:38:38.804Z,-25.5
2022-08-21T01:40:39.951Z,-25.6
2022-08-21T01:42:41.086Z,-25.5
2022-08-21T01:44:42.772Z,-25.5
2022-08-21T01:46:44.475Z,-25.3
2022-08-21T01:48:46.023Z,-25.8
2022-08-21T01:50:47.011Z,-25.5
2022-08-21T01:52:48.571Z,-25.6
2022-08-21T01:54:51.068Z,-25.6
2022-08-21T01:56:51.549Z,-25.3
2022-08-21T01:58:52.548Z,-25.5
2022-08-21T02:00:53.903Z,-25.6
2022-08-21T02:02:55.096Z,-25.5
2022-08-21T02:04:56.670Z,-25.5
2022-08-21T02:06:58.065Z,-25.3
2022-08-21T02:08:59.423Z,-25.5
2022-08-21T02:11:01.206Z,-25.6
2022-08-21T02:13:02.236Z,-25.5
2022-08-21T02:15:03.222Z,-25.5
2022-08-21T02:17:05.600Z,-25.3
2022-08-21T02:19:05.707Z,-25.6
2022-08-21T02:23:08.804Z,-25.3
2022-08-21T02:27:11.233Z,-25.5
2022-08-21T02:29:12.474Z,-25.5
2022-08-21T02:31:14.119Z,-25.5
2022-08-21T02:33:15.258Z,-25.6
2022-08-21T02:35:16.342Z,-25.5
2022-08-21T02:37:17.930Z,-25.6
2022-08-21T02:39:18.858Z,-25.5
2022-08-21T02:41:20.059Z,-25.4
2022-08-21T02:43:21.545Z,-25.5
2022-08-21T02:45:22.472Z,-25.6
2022-08-21T02:47:24.063Z,-25.7
2022-08-21T02:49:25.126Z,-25.6
2022-08-21T02:51:26.652Z,-25.4
2022-08-21T02:53:28.401Z,-25.4
2022-08-21T02:55:30.239Z,-25.4
2022-08-21T02:57:31.169Z,-25.8
2022-08-21T02:59:32.362Z,-25.6
2022-08-21T03:01:33.528Z,-25.6
2022-08-21T03:03:34.520Z,-25.4
2022-08-21T03:05:36.182Z,-25.7
2022-08-21T03:07:37.617Z,-25.7
2022-08-21T03:09:38.882Z,-25.5
2022-08-21T03:11:40.105Z,-25.5
2022-08-21T03:13:41.684Z,-25.6
2022-08-21T03:15:43.231Z,-25.6
2022-08-21T03:17:45.161Z,-25.5
2022-08-21T03:21:48.064Z,-25.5
2022-08-21T03:23:49.781Z,-25.7
2022-08-21T03:25:51.440Z,-25.6
2022-08-21T03:27:54.952Z,-25.5
2022-08-21T03:29:53.746Z,-25.4
2022-08-21T03:31:54.969Z,-25.6
2022-08-21T03:37:59.149Z,-25.5
2022-08-21T03:40:00.484Z,-25.5
2022-08-21T03:42:02.113Z,-25.5
2022-08-21T03:44:03.547Z,-25.5
2022-08-21T03:46:04.501Z,-25.4
2022-08-21T03:48:05.869Z,-25.6
2022-08-21T03:52:07.963Z,-25.5
2022-08-21T03:54:09.026Z,-25.3
2022-08-21T03:56:09.969Z,-25.5
2022-08-21T03:58:11.295Z,-25.5
2022-08-21T04:04:15.407Z,-25.4
2022-08-21T04:08:17.510Z,-25.4
2022-08-21T04:10:19.335Z,-25.6
2022-08-21T04:12:21.238Z,-25.5
2022-08-21T04:14:23.001Z,-25.5
2022-08-21T04:16:24.287Z,-25.5
2022-08-21T04:18:25.454Z,-25.3
2022-08-21T04:20:27.131Z,-25.4
2022-08-21T04:22:28.161Z,-25.5
2022-08-21T04:24:29.943Z,-25.3
2022-08-21T04:26:30.939Z,-25.7
2022-08-21T04:28:32.323Z,-25.4
2022-08-21T04:30:33.512Z,-25.4
2022-08-21T04:32:34.882Z,-25.5
2022-08-21T04:34:36.263Z,-25.5
2022-08-21T04:36:37.490Z,-25.7
2022-08-21T04:38:38.524Z,-25.3
2022-08-21T04:40:40.326Z,-25.4
2022-08-21T04:42:41.420Z,-25.5
2022-08-21T04:44:42.977Z,-25.3
2022-08-21T04:46:44.465Z,-25.5
2022-08-21T04:50:47.498Z,-25.7
2022-08-21T04:52:49.103Z,-25.7
2022-08-21T04:54:54.365Z,-25.5
2022-08-21T04:56:52.801Z,-25.5
2022-08-21T04:58:54.458Z,-25.3
2022-08-21T05:00:55.901Z,-25.3
2022-08-21T05:02:57.549Z,-25.5
2022-08-21T05:04:58.824Z,-25.5
2022-08-21T05:07:00.417Z,-25.3
2022-08-21T05:09:02.341Z,-25.1
2022-08-21T05:11:03.431Z,-25.6
2022-08-21T05:13:04.768Z,-25.2
2022-08-21T05:15:05.748Z,-25.2
2022-08-21T05:17:07.348Z,-15.7
2022-08-21T05:19:08.718Z,-17.79
2022-08-21T05:21:10.516Z,-13.5
2022-08-21T05:23:11.442Z,-8.6
2022-08-21T05:25:12.598Z,-15.5
2022-08-21T05:27:14.359Z,-16.9
2022-08-21T05:29:15.527Z,-10
2022-08-21T05:33:18.487Z,2.6
2022-08-21T05:35:19.726Z,4.1
2022-08-21T05:39:22.067Z,22.1
2022-08-21T05:41:23.063Z,22.4
2022-08-21T05:43:24.394Z,27.2
2022-08-21T05:45:39.344Z,28.6
2022-08-21T05:47:27.770Z,34.5
2022-08-21T05:49:29.032Z,36.09
2022-08-21T05:51:30.255Z,40.9
2022-08-21T05:53:31.137Z,38.59
2022-08-21T05:55:33.861Z,52.9
2022-08-21T05:59:35.736Z,73.9
2022-08-21T06:01:36.892Z,73.3
2022-08-21T06:03:38.059Z,72.1
2022-08-21T06:05:38.890Z,71.5
2022-08-21T06:09:41.567Z,69.9
2022-08-21T06:11:42.572Z,69.1
2022-08-21T06:13:43.917Z,68.5
2022-08-21T06:15:45.479Z,67.9
2022-08-21T06:17:46.823Z,66.4
2022-08-21T06:19:48.602Z,65.5
2022-08-21T06:21:50.320Z,64.5
2022-08-21T06:23:51.520Z,63.6
2022-08-21T06:27:54.445Z,60.2
2022-08-21T06:29:56.191Z,59.3
2022-08-21T06:31:57.505Z,56.8
2022-08-21T06:36:00.034Z,53.9
2022-08-21T06:38:01.579Z,52.2
2022-08-21T06:42:04.883Z,48
2022-08-21T06:44:06.372Z,46.3
2022-08-21T06:46:07.280Z,44.6
2022-08-21T06:48:08.564Z,43.2
2022-08-21T06:50:09.873Z,41.3
2022-08-21T06:52:11.432Z,39
2022-08-21T06:54:12.800Z,37.59
2022-08-21T06:56:14.234Z,35.59
2022-08-21T06:58:15.084Z,33.9
2022-08-21T07:00:16.045Z,32.09
2022-08-21T07:02:17.644Z,30.1
2022-08-21T07:04:18.623Z,28.2
2022-08-21T07:06:19.908Z,27.3
2022-08-21T07:08:21.356Z,26.9
2022-08-21T07:12:23.964Z,22.3
2022-08-21T07:14:25.439Z,21.6
2022-08-21T07:16:26.767Z,19.5
2022-08-21T07:18:27.863Z,18.7
2022-08-21T07:20:28.842Z,17.6
2022-08-21T07:22:29.851Z,17.2
2022-08-21T07:23:13.535Z,17.6
2022-08-21T07:25:15.313Z,15
2022-08-21T07:27:16.788Z,14.5
2022-08-21T07:29:18.216Z,14.2
2022-08-21T07:31:19.166Z,14.2
2022-08-21T07:37:23.494Z,11.3
2022-08-21T07:39:24.699Z,9.39
2022-08-21T07:41:25.759Z,9.1
2022-08-21T07:45:29.195Z,8.8
2022-08-21T07:47:42.009Z,-25.6
2022-08-21T07:49:30.958Z,-25.3
2022-08-21T07:51:32.619Z,-25.4
2022-08-21T07:55:35.739Z,-25.4
2022-08-21T07:57:37.024Z,-25.6
2022-08-21T07:59:38.080Z,-25.7
2022-08-21T08:03:40.327Z,-25.4
2022-08-21T08:05:41.942Z,-25.5
2022-08-21T08:07:42.941Z,-25.6
2022-08-21T08:09:44.111Z,-25.8
2022-08-21T08:11:45.957Z,-25.7
2022-08-21T08:13:47.684Z,-25.4
2022-08-21T08:15:48.954Z,-25.4
2022-08-21T08:17:50.098Z,-25.5
2022-08-21T08:19:51.448Z,-25.6
2022-08-21T08:21:52.775Z,-25.5
2022-08-21T08:23:54.369Z,-25.5
2022-08-21T08:25:55.906Z,-25.5
2022-08-21T08:27:57.383Z,-25.5
2022-08-21T08:29:58.183Z,-25.5
2022-08-21T08:31:59.578Z,-25.6
2022-08-21T08:34:00.455Z,-25.4
2022-08-21T08:36:06.098Z,-25.4
2022-08-21T08:38:03.477Z,-25.5
2022-08-21T08:40:05.414Z,-25.4
2022-08-21T08:46:08.817Z,-25.5
2022-08-21T08:48:14.187Z,-25.4
2022-08-21T08:50:11.811Z,-25.2
2022-08-21T08:52:13.460Z,-25.3
2022-08-21T08:54:14.666Z,-25.5
2022-08-21T08:56:15.881Z,-25.5
2022-08-21T08:58:17.389Z,-25.8
2022-08-21T09:02:20.286Z,-25.6
2022-08-21T09:04:21.962Z,-25.7
2022-08-21T09:06:22.947Z,-25.5
2022-08-21T09:08:24.009Z,-25.5
2022-08-21T09:10:25.414Z,-25.7
2022-08-21T09:12:26.299Z,-25.8
2022-08-21T09:18:30.586Z,-25.3
2022-08-21T09:20:31.433Z,-25.6
2022-08-21T09:22:33.194Z,-25.4
2022-08-21T09:24:34.911Z,-25.5
2022-08-21T09:26:36.149Z,-25.6
2022-08-21T09:28:37.224Z,-25.5
2022-08-21T09:32:39.130Z,-25.7
2022-08-21T09:34:40.219Z,-25.5
2022-08-21T09:36:41.757Z,-25.4
2022-08-21T09:38:42.615Z,-25.5
2022-08-21T09:44:46.518Z,-25.6
2022-08-21T09:46:47.555Z,-25.7
2022-08-21T09:48:49.026Z,-25.7
2022-08-21T09:50:50.347Z,-25.7
2022-08-21T09:52:52.242Z,-25.6
2022-08-21T09:54:52.642Z,-25.3
2022-08-21T09:56:54.366Z,-25.3
2022-08-21T09:58:55.824Z,-25.7
2022-08-21T10:00:57.620Z,-25.4
2022-08-21T10:02:59.296Z,-25.5
2022-08-21T10:05:00.015Z,-25.6
2022-08-21T10:07:01.204Z,-25.6
2022-08-21T10:09:01.991Z,-25.7
2022-08-21T10:11:03.564Z,-25.5
2022-08-21T10:13:05.140Z,-25.6
2022-08-21T10:15:08.642Z,-25.6
2022-08-21T10:17:07.691Z,-25.5
2022-08-21T10:19:08.608Z,-25.4
2022-08-21T10:25:13.105Z,-25.3
2022-08-21T10:27:14.477Z,-25.6
2022-08-21T10:29:15.663Z,-25.7
2022-08-21T10:31:16.624Z,-25.4
2022-08-21T10:33:18.087Z,-25.2
2022-08-21T10:37:20.569Z,-25.8
2022-08-21T10:43:23.680Z,-25.4
2022-08-21T10:45:25.174Z,-25.3
2022-08-21T10:47:26.413Z,-25.4
2022-08-21T10:49:27.193Z,-25.5
2022-08-21T10:51:29.281Z,-25.5
2022-08-21T10:53:30.133Z,-25.6
2022-08-21T10:59:38.081Z,-25.3
2022-08-21T11:01:35.148Z,-25.4
2022-08-21T11:03:36.405Z,-25.8
2022-08-21T11:05:37.338Z,-25.6
2022-08-21T11:07:38.992Z,-25.7
2022-08-21T11:09:40.425Z,-25.4
2022-08-21T11:11:45.091Z,-25.3
2022-08-21T11:13:42.915Z,-25.7
2022-08-21T11:15:44.595Z,-25.6
2022-08-21T11:17:45.708Z,-25.7
2022-08-21T11:19:47.055Z,-25.8
2022-08-21T11:25:50.053Z,-25.5
2022-08-21T11:27:51.790Z,-25.6
2022-08-21T11:29:53.493Z,-25.9
2022-08-21T11:31:54.469Z,-25.7
2022-08-21T11:33:55.747Z,-25.5
2022-08-21T11:35:57.284Z,-25.6
2022-08-21T11:37:58.513Z,-25.4
2022-08-21T11:39:59.777Z,-25.5
2022-08-21T11:42:00.714Z,-25.5
2022-08-21T11:46:02.450Z,-25.6
2022-08-21T11:48:03.276Z,-25.6
2022-08-21T11:50:04.832Z,-25.7
2022-08-21T11:52:05.882Z,-25.6
2022-08-21T11:54:07.427Z,-25.5
2022-08-21T11:56:08.442Z,-25.6
2022-08-21T11:58:09.260Z,-25.5
2022-08-21T12:00:10.578Z,-25.5
2022-08-21T12:02:12.154Z,-25.6
2022-08-21T12:04:13.546Z,-25.6
2022-08-21T12:06:14.541Z,-25.4
2022-08-21T12:08:25.099Z,-25.5
2022-08-21T12:10:17.359Z,-25.4
2022-08-21T12:12:18.547Z,-25.4
2022-08-21T12:14:19.716Z,-25.5
2022-08-21T12:16:20.522Z,-25.5
2022-08-21T12:18:21.447Z,-26
2022-08-21T12:20:22.446Z,-25.5
2022-08-21T12:22:24.038Z,-25.8
2022-08-21T12:24:27.778Z,-25.6
2022-08-21T12:26:27.200Z,-25.4
2022-08-21T12:28:28.418Z,-25.7
2022-08-21T12:30:29.523Z,-25.7
2022-08-21T12:32:30.881Z,-25.4
2022-08-21T12:34:31.801Z,-25.6
2022-08-21T12:40:35.436Z,-25.7
2022-08-21T12:42:36.849Z,-25.7
2022-08-21T12:44:38.367Z,-25.3
2022-08-21T12:46:39.669Z,-25.6
2022-08-21T12:48:41.009Z,-25.6
2022-08-21T12:50:42.001Z,-25.5
2022-08-21T12:52:43.226Z,-25.4
2022-08-21T12:54:44.909Z,-25.4
2022-08-21T12:56:46.051Z,-25.3
2022-08-21T12:58:47.294Z,-25.6
2022-08-21T13:00:48.733Z,-25.5
2022-08-21T13:06:52.180Z,-25.4
2022-08-21T13:08:53.504Z,-25.7
2022-08-21T13:10:55.154Z,-25.8
2022-08-21T13:12:56.780Z,-25.5
2022-08-21T13:16:58.893Z,-25.4
2022-08-21T13:18:59.753Z,-25.4
2022-08-21T13:21:01.241Z,-25.6
2022-08-21T13:23:02.856Z,-25.6
2022-08-21T13:25:06.866Z,-25.8
2022-08-21T13:27:06.101Z,-25.3
2022-08-21T13:29:07.337Z,21.7
2022-08-21T13:35:10.342Z,59.1
2022-08-21T13:37:11.668Z,56.8
2022-08-21T13:39:13.110Z,54.8
2022-08-21T13:41:14.741Z,52.3
2022-08-21T13:43:18.402Z,51.5
2022-08-21T13:45:17.505Z,49.6
2022-08-21T13:47:18.386Z,47.2
2022-08-21T13:49:19.859Z,45.8
2022-08-21T13:51:21.296Z,43.4
2022-08-21T13:53:22.411Z,41.7
2022-08-21T13:55:23.583Z,39.9
2022-08-21T13:57:24.604Z,38.3
2022-08-21T13:59:25.921Z,35.8
2022-08-21T14:01:27.182Z,34.5
2022-08-21T14:03:28.851Z,32.7
2022-08-21T14:05:30.316Z,29.6
2022-08-21T14:07:31.301Z,28.2
2022-08-21T14:09:32.445Z,27
2022-08-21T14:12:17.853Z,3.8
2022-08-21T14:14:18.381Z,23.9
2022-08-21T14:16:19.986Z,23.1
2022-08-21T14:20:22.818Z,18.4
2022-08-21T14:22:24.357Z,16.29
2022-08-21T14:24:25.806Z,-25.5
2022-08-21T14:26:27.243Z,-25.4
2022-08-21T14:28:28.288Z,-25.5
2022-08-21T14:30:29.398Z,-25.4
2022-08-21T14:32:30.382Z,-25.6
2022-08-21T14:34:35.453Z,-25.6
2022-08-21T14:36:32.360Z,-25.7
2022-08-21T14:38:33.646Z,-25.6
2022-08-21T14:40:34.753Z,-25.6
2022-08-21T14:42:35.759Z,-25.8
2022-08-21T14:44:37.091Z,-25.5
2022-08-21T14:46:39.197Z,-25.7
2022-08-21T14:48:40.003Z,-25.8
2022-08-21T14:50:41.236Z,-25.6
2022-08-21T14:52:42.996Z,-25.6
2022-08-21T14:54:44.081Z,-25.6
2022-08-21T14:56:45.163Z,-25.4
2022-08-21T15:00:46.772Z,-25.5
2022-08-21T15:02:47.756Z,-25.8
2022-08-21T15:04:48.897Z,-25.6
2022-08-21T15:06:50.634Z,-25.7
2022-08-21T15:08:52.415Z,-25.6
2022-08-21T15:11:10.848Z,-25.6
2022-08-21T15:12:54.814Z,-25.2
2022-08-21T15:14:55.553Z,-25.6
2022-08-21T15:18:58.303Z,-25.7
2022-08-21T15:20:59.564Z,-25.6
2022-08-21T15:23:01.336Z,-25.5
2022-08-21T15:25:02.508Z,-25.5
2022-08-21T15:31:06.461Z,-25.3
2022-08-21T15:33:08.193Z,-25.5
2022-08-21T15:35:09.384Z,-25.4
2022-08-21T15:37:10.135Z,-25.2
2022-08-21T15:39:11.428Z,-25.3
2022-08-21T15:41:12.797Z,-25.4
2022-08-21T15:43:13.995Z,-25.6
2022-08-21T15:45:15.122Z,-25.4
2022-08-21T15:47:16.413Z,-25.6
2022-08-21T15:49:17.736Z,-25.5
2022-08-21T15:51:19.005Z,-25.3
2022-08-21T15:53:20.469Z,-25.7
2022-08-21T15:57:22.861Z,-25.4
2022-08-21T15:59:24.201Z,-25.7
2022-08-21T16:01:25.608Z,-25.6
2022-08-21T16:03:26.589Z,-25.4
2022-08-21T16:07:30.077Z,-25.5
2022-08-21T16:11:31.913Z,-25.5
2022-08-21T16:13:32.749Z,-25.7
2022-08-21T16:15:33.837Z,-25.4
2022-08-21T16:17:35.273Z,-25.5
2022-08-21T16:19:36.367Z,-25.5
2022-08-21T16:21:37.168Z,-25.3
2022-08-21T16:23:38.682Z,-25.6
2022-08-21T16:25:39.941Z,-25.2
2022-08-21T16:27:41.217Z,-25.5
2022-08-21T16:29:42.446Z,-25.4
2022-08-21T16:31:43.277Z,-25.4
2022-08-21T16:33:44.480Z,-25.3
2022-08-21T16:35:46.948Z,-25.7
2022-08-21T16:37:55.837Z,-25.6
2022-08-21T16:39:49.362Z,-25.4
2022-08-21T16:41:50.597Z,-25.7
2022-08-21T16:43:51.706Z,-25.8
2022-08-21T16:45:53.255Z,-25.6
2022-08-21T16:47:54.956Z,-25.6
2022-08-21T16:49:56.309Z,-25.5
2022-08-21T16:51:57.321Z,-25.4
2022-08-21T16:53:58.927Z,-25.5
2022-08-21T16:56:00.244Z,-25.6
2022-08-21T16:58:01.660Z,-25.5
2022-08-21T17:00:03.353Z,-25.5
2022-08-21T17:02:04.354Z,-25.5
2022-08-21T17:04:05.257Z,-25.7
2022-08-21T17:06:06.994Z,-25.7
2022-08-21T17:08:08.294Z,-25.5
2022-08-21T17:10:09.134Z,-25.5
2022-08-21T17:12:09.937Z,-25.3
2022-08-21T17:14:10.786Z,-25.4
2022-08-21T17:16:12.311Z,-25.5
2022-08-21T17:18:13.949Z,-25.4
2022-08-21T17:20:15.340Z,-25.6
2022-08-21T17:22:16.326Z,-25.5
2022-08-21T17:24:17.768Z,-25.7
2022-08-21T17:26:18.915Z,-25.5
2022-08-21T17:28:20.285Z,-25.6
2022-08-21T17:30:21.369Z,-25.7
2022-08-21T17:32:22.634Z,-25.4
2022-08-21T17:34:24.135Z,-25.8
2022-08-21T17:36:25.738Z,-25.6
2022-08-21T17:38:27.901Z,-25.5
2022-08-21T17:42:30.048Z,-25.7
2022-08-21T17:44:31.117Z,-25.5
2022-08-21T17:46:32.321Z,-25.5
2022-08-21T17:48:33.284Z,-25.5
2022-08-21T17:54:37.008Z,-25.8
2022-08-21T17:56:38.431Z,-25.7
2022-08-21T17:58:39.764Z,-25.6
2022-08-21T18:00:40.743Z,-25.7
2022-08-21T18:02:41.843Z,-25.9
2022-08-21T18:04:43.236Z,-25.7
2022-08-21T18:06:44.513Z,-25.5
2022-08-21T18:08:46.042Z,-25.7
2022-08-21T18:10:47.635Z,-25.8
2022-08-21T18:12:49.293Z,-25.5
2022-08-21T18:14:50.462Z,-25.5
2022-08-21T18:16:51.448Z,-25.6
2022-08-21T18:18:52.405Z,-25.5
2022-08-21T18:20:53.634Z,-25.6
2022-08-21T18:22:55.081Z,-25.2
2022-08-21T18:24:56.822Z,-25.8
2022-08-21T18:26:57.820Z,-25.6
2022-08-21T18:28:58.723Z,-25.6
2022-08-21T18:30:59.742Z,-25.5
2022-08-21T18:33:00.732Z,-25.6
2022-08-21T18:35:02.294Z,-25.7
2022-08-21T18:37:03.986Z,-25.6
2022-08-21T18:39:26.074Z,-25.5
2022-08-21T18:41:09.550Z,-25.6
2022-08-21T18:43:08.513Z,-25.3
2022-08-21T18:45:10.236Z,-25.5
2022-08-21T18:47:12.231Z,-25.8
2022-08-21T18:49:12.736Z,-25.5
2022-08-21T18:53:18.383Z,-25.7
2022-08-21T18:55:17.217Z,-25.8
2022-08-21T18:57:18.452Z,-25.6
2022-08-21T18:59:20.197Z,-25.4
2022-08-21T19:01:21.827Z,-25.4
2022-08-21T19:03:23.715Z,-25.5
2022-08-21T19:07:25.699Z,-25.7
2022-08-21T19:09:26.928Z,-25.6
2022-08-21T19:11:27.834Z,-25.5
2022-08-21T19:13:29.417Z,-25.8
2022-08-21T19:15:30.912Z,-25.7
2022-08-21T19:17:32.112Z,-25.3
2022-08-21T19:19:33.493Z,-25.6
2022-08-21T19:21:35.273Z,-25.6
2022-08-21T19:23:36.188Z,-25.6
2022-08-21T19:25:39.663Z,-25.5
2022-08-21T19:29:40.172Z,-25.4
2022-08-21T19:31:41.607Z,-25.7
2022-08-21T19:33:44.248Z,-25.8
2022-08-21T19:35:44.929Z,-25.3
2022-08-21T19:39:47.091Z,-25.7
2022-08-21T19:41:50.633Z,-25.6
2022-08-21T19:43:49.523Z,-25.4
2022-08-21T19:45:50.705Z,-25.7
2022-08-21T19:49:52.939Z,-25.7
2022-08-21T19:51:54.778Z,-25.6
2022-08-21T19:53:56.933Z,-25.8
2022-08-21T19:55:57.683Z,-25.9
2022-08-21T20:00:00.382Z,-25.7
2022-08-21T20:02:01.463Z,-25.5
2022-08-21T20:06:03.650Z,-25.7
2022-08-21T20:08:05.059Z,-25.5
2022-08-21T20:10:06.547Z,-25.6
2022-08-21T20:12:09.990Z,-25.8
2022-08-21T20:14:08.443Z,-25.6
2022-08-21T20:18:11.933Z,-25.6
2022-08-21T20:22:15.383Z,-25.9
2022-08-21T20:24:17.138Z,-25.7
2022-08-21T20:26:18.811Z,-25.6
2022-08-21T20:28:19.945Z,-25.6
2022-08-21T20:30:22.674Z,-25.7
2022-08-21T20:32:22.374Z,-25.5
2022-08-21T20:34:23.816Z,-25.5
2022-08-21T20:36:25.545Z,-25.8
2022-08-21T20:38:27.382Z,-25.5
2022-08-21T20:40:32.706Z,-25.5
2022-08-21T20:42:30.471Z,-25.5
2022-08-21T20:44:31.690Z,-25.7
2022-08-21T20:48:49.014Z,-25.6
2022-08-21T20:50:37.047Z,-25.4
2022-08-21T20:52:36.747Z,-25.7
2022-08-21T20:54:38.401Z,-25.5
2022-08-21T20:55:25.791Z,-25.5
2022-08-21T20:59:24.877Z,-25.6
2022-08-21T21:01:26.279Z,-25.8
2022-08-21T21:03:30.127Z,-25.8
2022-08-21T21:07:29.574Z,-25.8
2022-08-21T21:09:31.953Z,-25.6
2022-08-21T21:15:35.422Z,-25.7
2022-08-21T21:17:37.982Z,-25.6
2022-08-21T21:19:38.500Z,-25.7
2022-08-21T21:21:39.783Z,-25.8
2022-08-21T21:25:43.034Z,-25.6
2022-08-21T21:27:44.067Z,-25.6
2022-08-21T21:29:45.207Z,-25.8
2022-08-21T21:31:46.292Z,-25.4
2022-08-21T21:33:47.169Z,-25.6
2022-08-21T21:35:49.187Z,-25.6
2022-08-21T21:37:49.681Z,-25.5
2022-08-21T21:39:50.730Z,-25.9
2022-08-21T21:43:53.976Z,-25.6
2022-08-21T21:45:55.261Z,-25.7
2022-08-21T21:47:56.705Z,-25.7
2022-08-21T21:49:57.767Z,-25.9
2022-08-21T21:52:00.377Z,-25.9
2022-08-21T21:54:00.721Z,-25.6
2022-08-21T21:58:03.803Z,-25.9
2022-08-21T22:00:05.392Z,-25.6
2022-08-21T22:02:06.337Z,-25.6
2022-08-21T22:04:07.952Z,-25.5
2022-08-21T22:06:09.424Z,-25.6
2022-08-21T22:08:10.388Z,-25.6
2022-08-21T22:10:19.599Z,-25.8
2022-08-21T22:12:13.460Z,-26
2022-08-21T22:14:16.131Z,-25.6
2022-08-21T22:18:17.847Z,-25.7
2022-08-21T22:20:19.477Z,-25.6
2022-08-21T22:22:21.223Z,-25.4
2022-08-21T22:24:22.837Z,-25.7
2022-08-21T22:26:24.084Z,-25.8
2022-08-21T22:28:25.899Z,-25.6
2022-08-21T22:30:27.499Z,-25.8
2022-08-21T22:36:32.158Z,-25.8
2022-08-21T22:38:33.339Z,-25.5
2022-08-21T22:40:35.166Z,-25.8
2022-08-21T22:42:36.599Z,-25.9
2022-08-21T22:44:38.326Z,-25.7
2022-08-21T22:46:39.621Z,-25.7
2022-08-21T22:50:43.331Z,-25.8
2022-08-21T22:52:44.755Z,-25.7
2022-08-21T22:54:46.076Z,-25.8
2022-08-21T22:56:48.101Z,-25.8
2022-08-21T22:58:49.214Z,-25.7
2022-08-21T23:00:51.026Z,-25.5
2022-08-21T23:02:52.749Z,-25.7
2022-08-21T23:04:54.628Z,-25.6
2022-08-21T23:06:55.959Z,-25.8
2022-08-21T23:08:57.016Z,-25.8
2022-08-21T23:10:58.580Z,-25.7
2022-08-21T23:13:00.986Z,-25.8
2022-08-21T23:19:05.262Z,-25.6
2022-08-21T23:21:07.146Z,-25.7
2022-08-21T23:23:08.141Z,-25.6
2022-08-21T23:25:09.370Z,-25.9
2022-08-21T23:27:11.102Z,-25.6
2022-08-21T23:29:12.579Z,-25.5
2022-08-21T23:31:14.146Z,-25.6
2022-08-21T23:33:15.580Z,-25.5
2022-08-21T23:35:17.894Z,-25.8
2022-08-21T23:37:18.202Z,-25.8
2022-08-21T23:39:20.377Z,-25.7
2022-08-21T23:41:33.850Z,-25.7
2022-08-21T23:43:22.390Z,-25.5
2022-08-21T23:45:24.376Z,-25.7
2022-08-21T23:47:25.408Z,-25.5
2022-08-21T23:49:26.553Z,-25.7
2022-08-21T23:51:27.994Z,-26
2022-08-21T23:53:29.252Z,-25.5
2022-08-21T23:55:30.328Z,-25.6
2022-08-21T23:57:32.017Z,-25.6
2022-08-21T23:59:33.589Z,-25.7
